createdAt,value
2023-04-25T04:00:28.508Z,991.23
2023-04-25T04:05:28.476Z,991.20
2023-04-25T04:10:28.391Z,991.23
2023-04-25T04:15:35.414Z,991.20
2023-04-25T04:20:28.265Z,991.28
2023-04-25T04:25:28.239Z,991.24
2023-04-25T04:30:28.183Z,991.32
2023-04-25T04:35:28.134Z,991.35
2023-04-25T04:40:28.080Z,991.34
2023-04-25T04:45:28.008Z,991.39
2023-04-25T04:50:27.977Z,991.49
2023-04-25T04:55:27.919Z,991.57
2023-04-25T05:00:29.652Z,991.59
2023-04-25T05:05:27.793Z,991.72
2023-04-25T05:10:27.746Z,991.74
2023-04-25T05:15:27.717Z,991.80
2023-04-25T05:20:27.642Z,991.86
2023-04-25T05:25:27.591Z,991.96
2023-04-25T05:30:27.555Z,992.03
2023-04-25T05:35:27.526Z,992.12
2023-04-25T05:40:27.431Z,991.99
2023-04-25T05:45:27.370Z,992.08
2023-04-25T05:50:27.307Z,992.11
2023-04-25T05:55:27.303Z,992.16
2023-04-25T06:00:27.193Z,992.20
2023-04-25T06:05:27.398Z,992.26
2023-04-25T06:10:27.118Z,992.36
2023-04-25T06:15:28.840Z,992.39
2023-04-25T06:20:26.996Z,992.29
2023-04-25T06:25:26.970Z,992.32
2023-04-25T06:30:26.880Z,992.35
2023-04-25T06:35:26.877Z,992.38
2023-04-25T06:40:26.867Z,992.45
2023-04-25T06:45:26.710Z,992.38
2023-04-25T06:50:26.711Z,992.40
2023-04-25T06:55:26.675Z,992.44
2023-04-25T07:00:26.569Z,992.61
2023-04-25T07:05:26.490Z,992.70
2023-04-25T07:10:26.490Z,992.73
2023-04-25T07:15:26.414Z,992.78
2023-04-25T07:20:26.835Z,992.78
2023-04-25T07:25:26.274Z,992.83
2023-04-25T07:30:26.229Z,992.85
2023-04-25T07:35:26.238Z,992.81
2023-04-25T07:40:26.113Z,992.88
2023-04-25T07:45:26.057Z,992.94
2023-04-25T07:50:26.000Z,992.93
2023-04-25T07:55:25.961Z,992.89
2023-04-25T08:00:25.924Z,993.09
2023-04-25T08:05:26.018Z,993.00
2023-04-25T08:10:25.787Z,993.11
2023-04-25T08:15:25.751Z,993.20
2023-04-25T08:20:25.687Z,993.39
2023-04-25T08:25:25.611Z,993.43
2023-04-25T08:30:25.571Z,993.37
2023-04-25T08:35:25.593Z,993.47
2023-04-25T08:40:25.464Z,993.55
2023-04-25T08:45:25.408Z,993.57
2023-04-25T08:50:25.371Z,993.66
2023-04-25T08:55:25.407Z,993.72
2023-04-25T09:00:25.245Z,993.83
2023-04-25T09:05:25.185Z,993.69
2023-04-25T09:10:25.130Z,993.87
2023-04-25T09:15:25.097Z,993.94
2023-04-25T09:20:25.023Z,994.04
2023-04-25T09:25:24.973Z,994.03
2023-04-25T09:30:24.902Z,994.14
2023-04-25T09:35:24.882Z,994.09
2023-04-25T09:40:24.795Z,994.01
2023-04-25T09:45:24.741Z,994.18
2023-04-25T09:50:24.686Z,994.12
2023-04-25T09:55:24.658Z,994.23
2023-04-25T10:00:24.743Z,994.30
2023-04-25T10:05:24.510Z,994.49
2023-04-25T10:10:24.465Z,994.55
2023-04-25T10:15:24.525Z,994.65
2023-04-25T10:20:31.406Z,994.59
2023-04-25T10:25:24.309Z,994.50
2023-04-25T10:30:24.268Z,994.53
2023-04-25T10:35:24.208Z,994.64
2023-04-25T10:40:24.566Z,994.68
2023-04-25T10:45:24.076Z,994.67
2023-04-25T10:50:24.035Z,994.84
2023-04-25T10:55:23.989Z,994.71
2023-04-25T11:00:25.843Z,994.78
2023-04-25T11:05:24.859Z,994.69
2023-04-25T11:10:23.795Z,994.70
2023-04-25T11:15:24.188Z,994.75
2023-04-25T11:20:23.699Z,994.77
2023-04-25T11:25:23.658Z,994.70
2023-04-25T11:30:23.609Z,994.65
2023-04-25T11:35:23.595Z,994.60
2023-04-25T11:40:23.478Z,994.64
2023-04-25T11:45:23.427Z,994.63
2023-04-25T11:50:23.372Z,994.71
2023-04-25T11:55:23.441Z,994.65
2023-04-25T12:00:23.326Z,994.68
2023-04-25T12:10:23.141Z,994.76
2023-04-25T12:15:23.135Z,994.86
2023-04-25T12:20:23.048Z,995.06
2023-04-25T12:25:22.995Z,995.10
2023-04-25T12:30:22.941Z,995.21
2023-04-25T12:35:22.910Z,995.33
2023-04-25T12:40:22.833Z,995.39
2023-04-25T12:45:22.773Z,995.43
2023-04-25T12:50:22.747Z,995.37
2023-04-25T12:55:22.775Z,995.43
2023-04-25T13:00:23.308Z,995.57
2023-04-25T13:05:22.558Z,995.67
2023-04-25T13:10:22.489Z,995.75
2023-04-25T13:15:22.468Z,995.72
2023-04-25T13:20:22.401Z,995.68
2023-04-25T13:25:22.350Z,995.52
2023-04-25T13:30:22.277Z,995.53
2023-04-25T13:35:22.266Z,995.45
2023-04-25T13:40:24.020Z,995.41
2023-04-25T13:45:22.129Z,995.39
2023-04-25T13:50:22.294Z,995.41
2023-04-25T13:55:22.038Z,995.40
2023-04-25T14:00:21.979Z,995.48
2023-04-25T14:05:21.883Z,995.61
2023-04-25T14:10:21.839Z,995.52
2023-04-25T14:15:21.861Z,995.59
2023-04-25T14:20:21.734Z,995.74
2023-04-25T14:25:21.685Z,996.00
2023-04-25T14:30:21.665Z,996.13
2023-04-25T14:35:21.578Z,996.00
2023-04-25T14:40:21.520Z,995.92
2023-04-25T14:45:21.461Z,995.91
2023-04-25T14:50:21.425Z,995.91
2023-04-25T14:55:21.377Z,995.85
2023-04-25T15:00:21.294Z,995.83
2023-04-25T15:05:21.249Z,995.81
2023-04-25T15:10:21.196Z,995.79
2023-04-25T15:15:26.553Z,995.74
2023-04-25T15:20:22.115Z,995.79
2023-04-25T15:25:21.033Z,995.83
2023-04-25T15:30:20.997Z,995.88
2023-04-25T15:35:20.953Z,995.87
2023-04-25T15:40:20.882Z,995.86
2023-04-25T15:45:20.806Z,995.88
2023-04-25T15:50:20.779Z,995.87
2023-04-25T15:55:20.848Z,995.93
2023-04-25T16:00:20.843Z,995.96
2023-04-25T16:05:20.833Z,995.89
2023-04-25T16:10:20.547Z,996.03
2023-04-25T16:15:20.543Z,996.12
2023-04-25T16:20:20.423Z,996.01
2023-04-25T16:25:20.386Z,995.96
2023-04-25T16:30:20.337Z,996.00
2023-04-25T16:35:20.394Z,996.10
2023-04-25T16:40:20.229Z,996.06
2023-04-25T16:45:20.247Z,996.04
2023-04-25T16:50:20.109Z,996.12
2023-04-25T16:55:20.089Z,996.07
2023-04-25T17:00:20.006Z,996.08
2023-04-25T17:05:19.951Z,996.10
2023-04-25T17:10:19.899Z,996.18
2023-04-25T17:15:19.880Z,996.20
2023-04-25T17:20:19.782Z,996.25
2023-04-25T17:25:19.752Z,996.30
2023-04-25T17:30:19.699Z,996.28
2023-04-25T17:35:19.678Z,996.26
2023-04-25T17:40:19.571Z,996.33
2023-04-25T17:45:19.575Z,996.45
2023-04-25T17:50:19.463Z,996.48
2023-04-25T17:55:19.450Z,996.61
2023-04-25T18:00:19.366Z,996.62
2023-04-25T18:05:19.775Z,996.61
2023-04-25T18:10:19.252Z,996.64
2023-04-25T18:15:19.238Z,996.76
2023-04-25T18:20:19.167Z,996.72
2023-04-25T18:25:19.092Z,996.79
2023-04-25T18:30:19.057Z,996.89
2023-04-25T18:35:19.089Z,996.98
2023-04-25T18:40:18.950Z,997.02
2023-04-25T18:45:18.880Z,997.12
2023-04-25T18:50:18.953Z,997.12
2023-04-25T18:55:18.805Z,997.17
2023-04-25T19:00:18.751Z,997.21
2023-04-25T19:05:18.667Z,997.29
2023-04-25T19:10:18.651Z,997.43
2023-04-25T19:15:18.611Z,997.49
2023-04-25T19:20:18.527Z,997.59
2023-04-25T19:25:18.468Z,997.57
2023-04-25T19:30:18.417Z,997.63
2023-04-25T19:35:18.402Z,997.58
2023-04-25T19:40:18.313Z,997.62
2023-04-25T19:45:18.267Z,997.70
2023-04-25T19:50:18.200Z,997.77
2023-04-25T19:55:18.189Z,997.74
2023-04-25T20:00:19.958Z,997.73
2023-04-25T20:05:18.038Z,997.73
2023-04-25T20:10:18.186Z,997.83
2023-04-25T20:15:17.984Z,997.86
2023-04-25T20:20:17.885Z,997.94
2023-04-25T20:25:17.830Z,997.99
2023-04-25T20:30:17.767Z,998.01
2023-04-25T20:35:17.752Z,998.08
2023-04-25T20:40:17.662Z,998.07
2023-04-25T20:45:17.617Z,998.12
2023-04-25T20:50:17.558Z,998.04
2023-04-25T20:55:17.530Z,998.09
2023-04-25T21:00:17.458Z,998.12
2023-04-25T21:05:17.403Z,998.10
2023-04-25T21:10:17.361Z,998.12
2023-04-25T21:15:17.310Z,998.10
2023-04-25T21:20:17.255Z,998.17
2023-04-25T21:25:17.197Z,998.26
2023-04-25T21:30:17.142Z,998.28
2023-04-25T21:35:17.110Z,998.28
2023-04-25T21:40:17.055Z,998.32
2023-04-25T21:45:16.983Z,998.40
2023-04-25T21:50:16.932Z,998.31
2023-04-25T21:55:16.893Z,998.44
2023-04-25T22:00:16.825Z,998.46
2023-04-25T22:05:16.785Z,998.52
2023-04-25T22:10:16.723Z,998.50
2023-04-25T22:15:16.681Z,998.54
2023-04-25T22:20:16.609Z,998.56
2023-04-25T22:25:16.556Z,998.57
2023-04-25T22:30:16.508Z,998.66
2023-04-25T22:35:16.455Z,998.78
2023-04-25T22:40:16.406Z,998.78
2023-04-25T22:45:16.338Z,998.87
2023-04-25T22:50:16.283Z,998.96
2023-04-25T22:55:16.268Z,998.93
2023-04-25T23:00:16.469Z,998.91
2023-04-25T23:05:16.125Z,998.96
2023-04-25T23:10:16.065Z,999.05
2023-04-25T23:15:16.052Z,999.02
2023-04-25T23:20:15.968Z,999.09
2023-04-25T23:25:15.908Z,998.98
